Time,TemperatureF,DewpointF,PressureIn,WindDirection,WindDirectionDegrees,WindSpeedMPH,WindSpeedGustMPH,Humidity,HourlyPrecipIn,Conditions,Clouds,dailyrainin,SolarRadiationWatts/m^2,SoftwareType,DateUTC
2013-02-12 00:11:00,22.0,16.0,-100.00,ENE,62,3.0,9.0,76,0.00,,,0.11,0.000000,,2013-02-12 09:11:00,
2013-02-12 00:21:00,22.0,16.0,-100.00,ENE,62,3.0,9.0,76,0.00,,,0.11,0.000000,,2013-02-12 09:21:00,
2013-02-12 00:31:00,22.0,16.0,-100.00,ENE,62,3.0,9.0,76,0.00,,,0.11,0.000000,,2013-02-12 09:31:00,
2013-02-12 00:41:00,22.0,16.0,-100.00,ENE,62,3.0,9.0,76,0.00,,,0.11,0.000000,,2013-02-12 09:41:00,
2013-02-12 00:51:00,22.0,16.0,-100.00,ENE,62,3.0,9.0,76,0.00,,,0.11,0.000000,,2013-02-12 09:51:00,
2013-02-12 01:21:00,23.0,16.0,-100.00,NNE,15,2.0,13.0,74,0.00,,,0.11,0.000000,,2013-02-12 10:21:00,
2013-02-12 01:31:00,23.0,16.0,-100.00,NNE,15,2.0,13.0,74,0.00,,,0.11,0.000000,,2013-02-12 10:31:00,
2013-02-12 01:43:00,23.0,16.0,-100.00,NNE,15,2.0,13.0,74,0.00,,,0.11,0.000000,,2013-02-12 10:43:00,
2013-02-12 01:51:00,23.0,16.0,-100.00,NNE,15,2.0,13.0,74,0.00,,,0.11,0.000000,,2013-02-12 10:51:00,
2013-02-12 02:21:00,24.0,17.0,-100.00,SSE,152,3.0,11.0,75,0.00,,,0.11,0.000000,,2013-02-12 11:21:00,
2013-02-12 02:31:00,24.0,17.0,-100.00,SSE,152,3.0,11.0,75,0.00,,,0.11,0.000000,,2013-02-12 11:31:00,
2013-02-12 02:41:00,24.0,17.0,-100.00,SSE,152,3.0,11.0,75,0.00,,,0.11,0.000000,,2013-02-12 11:41:00,
2013-02-12 02:52:00,24.0,17.0,-100.00,SSE,152,3.0,11.0,75,0.00,,,0.11,0.000000,,2013-02-12 11:52:00,
2013-02-12 03:21:00,21.0,14.0,-100.00,NE,35,4.0,8.0,75,0.00,,,0.11,0.000000,,2013-02-12 12:21:00,
2013-02-12 03:32:00,21.0,14.0,-100.00,NE,35,4.0,8.0,75,0.00,,,0.11,0.000000,,2013-02-12 12:32:00,
2013-02-12 03:42:00,21.0,14.0,-100.00,NE,35,4.0,8.0,75,0.00,,,0.11,0.000000,,2013-02-12 12:42:00,
2013-02-12 03:52:00,21.0,14.0,-100.00,NE,35,4.0,8.0,75,0.00,,,0.11,0.000000,,2013-02-12 12:52:00,
2013-02-12 04:22:00,22.0,16.0,-100.00,NE,41,3.0,12.0,79,0.00,,,0.11,0.000000,,2013-02-12 13:22:00,
2013-02-12 04:31:00,22.0,16.0,-100.00,NE,41,3.0,12.0,79,0.00,,,0.11,0.000000,,2013-02-12 13:31:00,
2013-02-12 04:42:00,22.0,16.0,-100.00,NE,41,3.0,12.0,79,0.00,,,0.11,0.000000,,2013-02-12 13:42:00,
2013-02-12 04:51:00,22.0,16.0,-100.00,NE,41,3.0,12.0,79,0.00,,,0.11,0.000000,,2013-02-12 13:51:00,
2013-02-12 05:11:00,25.0,18.0,-100.00,South,188,4.0,9.0,75,0.00,,,0.11,0.000000,,2013-02-12 14:11:00,
2013-02-12 05:21:00,25.0,18.0,-100.00,South,188,4.0,9.0,75,0.00,,,0.11,0.000000,,2013-02-12 14:21:00,
2013-02-12 05:31:00,25.0,18.0,-100.00,South,188,4.0,9.0,75,0.00,,,0.11,0.000000,,2013-02-12 14:31:00,
2013-02-12 05:41:00,25.0,18.0,-100.00,South,188,4.0,9.0,75,0.00,,,0.11,0.000000,,2013-02-12 14:41:00,
2013-02-12 05:52:00,25.0,18.0,-100.00,South,188,4.0,9.0,75,0.00,,,0.11,0.000000,,2013-02-12 14:52:00,
2013-02-12 06:11:00,24.0,17.0,-100.00,WNW,283,4.0,12.0,75,0.00,,,0.11,0.000000,,2013-02-12 15:11:00,
2013-02-12 06:21:00,24.0,17.0,-100.00,WNW,283,4.0,12.0,75,0.00,,,0.11,0.000000,,2013-02-12 15:21:00,
2013-02-12 06:32:00,24.0,17.0,-100.00,WNW,283,4.0,12.0,75,0.00,,,0.11,0.000000,,2013-02-12 15:32:00,
2013-02-12 06:42:00,24.0,17.0,-100.00,WNW,283,4.0,12.0,75,0.00,,,0.11,0.000000,,2013-02-12 15:42:00,
2013-02-12 06:52:00,24.0,17.0,-100.00,WNW,283,4.0,12.0,75,0.00,,,0.11,0.000000,,2013-02-12 15:52:00,
2013-02-12 07:22:00,24.0,17.0,-100.00,North,355,4.0,9.0,74,0.00,,,-99.99,0.000000,,2013-02-12 16:22:00,
2013-02-12 07:31:00,24.0,17.0,-100.00,North,355,4.0,9.0,74,0.00,,,-99.99,0.000000,,2013-02-12 16:31:00,
2013-02-12 07:41:00,24.0,17.0,-100.00,North,355,4.0,9.0,74,0.00,,,-99.99,0.000000,,2013-02-12 16:41:00,
2013-02-12 07:51:00,24.0,17.0,-100.00,North,355,4.0,9.0,74,0.00,,,-99.99,0.000000,,2013-02-12 16:51:00,
2013-02-12 08:21:00,23.0,17.0,-100.00,North,357,4.0,9.0,78,0.00,,,-99.99,0.000000,,2013-02-12 17:21:00,
2013-02-12 08:32:00,23.0,17.0,-100.00,North,357,4.0,9.0,78,0.00,,,-99.99,0.000000,,2013-02-12 17:32:00,
2013-02-12 08:41:00,23.0,17.0,-100.00,North,357,4.0,9.0,78,0.00,,,-99.99,0.000000,,2013-02-12 17:41:00,
2013-02-12 08:52:00,23.0,17.0,-100.00,North,357,4.0,9.0,78,0.00,,,-99.99,0.000000,,2013-02-12 17:52:00,
2013-02-12 09:22:00,23.0,17.0,-100.00,NNE,29,3.0,10.0,76,0.00,,,0.11,1.000000,,2013-02-12 18:22:00,
2013-02-12 09:31:00,23.0,17.0,-100.00,NNE,29,3.0,10.0,76,0.00,,,0.11,1.000000,,2013-02-12 18:31:00,
2013-02-12 09:41:00,23.0,17.0,-100.00,NNE,29,3.0,10.0,76,0.00,,,0.11,1.000000,,2013-02-12 18:41:00,
2013-02-12 09:51:00,23.0,17.0,-100.00,NNE,29,3.0,10.0,76,0.00,,,0.11,1.000000,,2013-02-12 18:51:00,
2013-02-12 10:11:00,24.0,17.0,-100.00,NNW,336,4.0,17.0,73,0.00,,,0.11,19.000000,,2013-02-12 19:11:00,
2013-02-12 10:21:00,24.0,17.0,-100.00,NNW,336,4.0,17.0,73,0.00,,,0.11,19.000000,,2013-02-12 19:21:00,
2013-02-12 10:31:00,24.0,17.0,-100.00,NNW,336,4.0,17.0,73,0.00,,,0.11,19.000000,,2013-02-12 19:31:00,
2013-02-12 10:41:00,24.0,17.0,-100.00,NNW,336,4.0,17.0,73,0.00,,,0.11,19.000000,,2013-02-12 19:41:00,
2013-02-12 10:51:00,24.0,17.0,-100.00,NNW,336,4.0,17.0,73,0.00,,,0.11,19.000000,,2013-02-12 19:51:00,
2013-02-12 11:21:00,29.0,20.0,-100.00,South,182,6.0,16.0,68,0.00,,,0.11,54.000000,,2013-02-12 20:21:00,
2013-02-12 11:31:00,29.0,20.0,-100.00,South,182,6.0,16.0,68,0.00,,,0.11,54.000000,,2013-02-12 20:31:00,
2013-02-12 11:41:00,29.0,20.0,-100.00,South,182,6.0,16.0,68,0.00,,,0.11,54.000000,,2013-02-12 20:41:00,
2013-02-12 11:51:00,29.0,20.0,-100.00,South,182,6.0,16.0,68,0.00,,,0.11,54.000000,,2013-02-12 20:51:00,
2013-02-12 12:21:00,29.0,18.0,-100.00,NE,45,5.0,10.0,64,0.00,,,0.11,92.000000,,2013-02-12 21:21:00,
2013-02-12 12:31:00,29.0,18.0,-100.00,NE,45,5.0,10.0,64,0.00,,,0.11,92.000000,,2013-02-12 21:31:00,
2013-02-12 12:41:00,29.0,18.0,-100.00,NE,45,5.0,10.0,64,0.00,,,0.11,92.000000,,2013-02-12 21:41:00,
2013-02-12 12:51:00,29.0,18.0,-100.00,NE,45,5.0,10.0,64,0.00,,,0.11,92.000000,,2013-02-12 21:51:00,
2013-02-12 13:21:00,29.0,19.0,-100.00,SSW,203,3.0,14.0,65,0.00,,,-99.99,143.000000,,2013-02-12 22:21:00,
2013-02-12 13:31:00,29.0,19.0,-100.00,SSW,203,3.0,14.0,65,0.00,,,-99.99,143.000000,,2013-02-12 22:31:00,
2013-02-12 13:41:00,29.0,19.0,-100.00,SSW,203,3.0,14.0,65,0.00,,,-99.99,143.000000,,2013-02-12 22:41:00,
2013-02-12 13:51:00,29.0,19.0,-100.00,SSW,203,3.0,14.0,65,0.00,,,-99.99,143.000000,,2013-02-12 22:51:00,
2013-02-12 14:21:00,29.0,19.0,-100.00,WNW,282,5.0,10.0,65,0.00,,,0.08,149.000000,,2013-02-12 23:21:00,
2013-02-12 14:31:00,29.0,19.0,-100.00,WNW,282,5.0,10.0,65,0.00,,,0.08,149.000000,,2013-02-12 23:31:00,
2013-02-12 14:41:00,29.0,19.0,-100.00,WNW,282,5.0,10.0,65,0.00,,,0.08,149.000000,,2013-02-12 23:41:00,
2013-02-12 14:52:00,29.0,19.0,-100.00,WNW,282,5.0,10.0,65,0.00,,,0.08,149.000000,,2013-02-12 23:52:00,
2013-02-12 15:21:00,29.0,18.0,-100.00,SE,142,4.0,16.0,63,0.00,,,0.04,93.000000,,2013-02-13 00:21:00,
2013-02-12 15:32:00,29.0,18.0,-100.00,SE,142,4.0,16.0,63,0.00,,,0.04,93.000000,,2013-02-13 00:32:00,
2013-02-12 15:42:00,29.0,18.0,-100.00,SE,142,4.0,16.0,63,0.00,,,0.04,93.000000,,2013-02-13 00:42:00,
2013-02-12 15:51:00,29.0,18.0,-100.00,SE,142,4.0,16.0,63,0.00,,,0.04,93.000000,,2013-02-13 00:51:00,
2013-02-12 16:42:00,29.0,20.0,-100.00,SSW,200,5.0,14.0,68,0.00,,,0.01,59.000000,,2013-02-13 01:42:00,
2013-02-12 16:51:00,29.0,20.0,-100.00,SSW,200,5.0,14.0,68,0.00,,,0.01,59.000000,,2013-02-13 01:51:00,
2013-02-12 17:41:00,27.0,20.0,-100.00,SSW,202,5.0,15.0,73,0.00,,,0.00,40.000000,,2013-02-13 02:41:00,
2013-02-12 17:52:00,27.0,20.0,-100.00,SSW,202,5.0,15.0,73,0.00,,,0.00,40.000000,,2013-02-13 02:52:00,
2013-02-12 18:21:00,26.0,19.0,-100.00,SSE,168,7.0,15.0,75,0.00,,,0.00,8.000000,,2013-02-13 03:21:00,
2013-02-12 18:32:00,26.0,19.0,-100.00,SSE,168,7.0,15.0,75,0.00,,,0.00,8.000000,,2013-02-13 03:32:00,
2013-02-12 18:41:00,26.0,19.0,-100.00,SSE,168,7.0,15.0,75,0.00,,,0.00,8.000000,,2013-02-13 03:41:00,
2013-02-12 18:51:00,26.0,19.0,-100.00,SSE,168,7.0,15.0,75,0.00,,,0.00,8.000000,,2013-02-13 03:51:00,
2013-02-12 19:11:00,26.0,20.0,-100.00,SW,222,5.0,14.0,78,0.00,,,0.00,0.000000,,2013-02-13 04:11:00,
2013-02-12 19:21:00,26.0,20.0,-100.00,SW,222,5.0,14.0,78,0.00,,,0.00,0.000000,,2013-02-13 04:21:00,
2013-02-12 19:31:00,26.0,20.0,-100.00,SW,222,5.0,14.0,78,0.00,,,0.00,0.000000,,2013-02-13 04:31:00,
2013-02-12 19:41:00,26.0,20.0,-100.00,SW,222,5.0,14.0,78,0.00,,,0.00,0.000000,,2013-02-13 04:41:00,
2013-02-12 19:51:00,26.0,20.0,-100.00,SW,222,5.0,14.0,78,0.00,,,0.00,0.000000,,2013-02-13 04:51:00,
2013-02-12 20:22:00,22.0,18.0,-100.00,NE,34,4.0,9.0,86,0.00,,,0.00,0.000000,,2013-02-13 05:22:00,
2013-02-12 20:31:00,22.0,18.0,-100.00,NE,34,4.0,9.0,86,0.00,,,0.00,0.000000,,2013-02-13 05:31:00,
2013-02-12 20:41:00,22.0,18.0,-100.00,NE,34,4.0,9.0,86,0.00,,,0.00,0.000000,,2013-02-13 05:41:00,
2013-02-12 20:52:00,22.0,18.0,-100.00,NE,34,4.0,9.0,86,0.00,,,0.00,0.000000,,2013-02-13 05:52:00,
2013-02-12 21:11:00,26.0,21.0,-100.00,NE,46,5.0,9.0,80,0.00,,,0.00,0.000000,,2013-02-13 06:11:00,
2013-02-12 21:21:00,26.0,21.0,-100.00,NE,46,5.0,9.0,80,0.00,,,0.00,0.000000,,2013-02-13 06:21:00,
2013-02-12 21:31:00,26.0,21.0,-100.00,NE,46,5.0,9.0,80,0.00,,,0.00,0.000000,,2013-02-13 06:31:00,
2013-02-12 21:41:00,26.0,21.0,-100.00,NE,46,5.0,9.0,80,0.00,,,0.00,0.000000,,2013-02-13 06:41:00,
2013-02-12 21:51:00,26.0,21.0,-100.00,NE,46,5.0,9.0,80,0.00,,,0.00,0.000000,,2013-02-13 06:51:00,
2013-02-12 22:21:00,24.0,16.0,-100.00,SW,219,6.0,15.0,72,0.00,,,0.00,0.000000,,2013-02-13 07:21:00,
2013-02-12 22:31:00,24.0,16.0,-100.00,SW,219,6.0,15.0,72,0.00,,,0.00,0.000000,,2013-02-13 07:31:00,
2013-02-12 22:41:00,24.0,16.0,-100.00,SW,219,6.0,15.0,72,0.00,,,0.00,0.000000,,2013-02-13 07:41:00,
2013-02-12 22:51:00,24.0,16.0,-100.00,SW,219,6.0,15.0,72,0.00,,,0.00,0.000000,,2013-02-13 07:51:00,
2013-02-12 23:21:00,25.0,19.0,-100.00,North,359,4.0,6.0,78,0.00,,,0.00,0.000000,,2013-02-13 08:21:00,
2013-02-12 23:31:00,25.0,19.0,-100.00,North,359,4.0,6.0,78,0.00,,,0.00,0.000000,,2013-02-13 08:31:00,
2013-02-12 23:43:00,25.0,19.0,-100.00,North,359,4.0,6.0,78,0.00,,,0.00,0.000000,,2013-02-13 08:43:00,
2013-02-12 23:52:00,25.0,19.0,-100.00,North,359,4.0,6.0,78,0.00,,,0.00,0.000000,,2013-02-13 08:52:00,